Time;durP1;ratioP1;P1;durP2;ratioP2;P2;SDS_P1;SDS_P2;PMS_P1;PMS_P2;Temp;Humidity;BMP_temperature;BMP_pressure;BME280_temperature;BME280_humidity;BME280_pressure;Samples;Min_cycle;Max_cycle;Signal;HPM_P1;HPM_P2
2021/06/10 00:02:20;;;;;;;11.82;9.18;;;;;;;;;;5053639;28;20445;-88
2021/06/10 00:05:07;;;;;;;13.52;7.80;;;;;;;;;;5061033;28;20444;-89
2021/06/10 00:07:53;;;;;;;11.20;7.13;;;;;;;;;;5049163;28;20119;-88
2021/06/10 00:10:40;;;;;;;12.80;8.77;;;;;;;;;;5058873;28;20025;-87
2021/06/10 00:13:25;;;;;;;9.45;7.80;;;;;;;;;;5054418;28;20467;-87
2021/06/10 00:16:10;;;;;;;9.80;8.10;;;;;;;;;;5061667;28;20023;-87
2021/06/10 00:18:57;;;;;;;11.93;7.38;;;;;;;;;;5061146;28;20031;-87
2021/06/10 00:21:42;;;;;;;9.38;7.60;;;;;;;;;;5057395;28;20044;-87
2021/06/10 00:24:27;;;;;;;11.82;8.43;;;;;;;;;;5067845;28;20331;-87
2021/06/10 00:27:19;;;;;;;10.68;8.35;;;;;;;;;;5065867;28;20020;-87
2021/06/10 00:30:06;;;;;;;12.82;9.10;;;;;;;;;;5060604;28;20019;-86
2021/06/10 00:32:51;;;;;;;11.18;8.73;;;;;;;;;;5059532;28;20027;-87
2021/06/10 00:35:37;;;;;;;11.85;8.52;;;;;;;;;;5056088;28;20021;-87
2021/06/10 00:38:23;;;;;;;10.23;8.48;;;;;;;;;;5043033;28;20493;-87
2021/06/10 00:41:08;;;;;;;10.65;8.70;;;;;;;;;;5054970;28;20052;-88
2021/06/10 00:43:53;;;;;;;11.15;8.35;;;;;;;;;;5047869;28;20127;-88
2021/06/10 00:46:38;;;;;;;10.45;8.10;;;;;;;;;;5059212;28;20048;-89
2021/06/10 00:49:24;;;;;;;9.32;7.65;;;;;;;;;;5051450;28;20486;-88
2021/06/10 00:52:10;;;;;;;10.55;7.32;;;;;;;;;;5063827;28;20532;-89
2021/06/10 00:54:55;;;;;;;11.25;8.55;;;;;;;;;;5059250;28;20508;-88
2021/06/10 00:57:40;;;;;;;10.90;7.43;;;;;;;;;;5045361;28;20024;-88
2021/06/10 01:00:25;;;;;;;10.50;7.70;;;;;;;;;;5056427;28;20028;-90
2021/06/10 01:03:11;;;;;;;13.63;8.38;;;;;;;;;;5052988;28;20082;-89
2021/06/10 01:06:00;;;;;;;10.63;8.20;;;;;;;;;;5058478;28;20081;-90
2021/06/10 01:08:45;;;;;;;;;;;;;;;;;;5043776;28;20064;-88
2021/06/10 01:11:44;;;;;;;13.65;8.02;;;;;;;;;;5057585;28;19953;-87
2021/06/10 01:14:32;;;;;;;12.48;8.30;;;;;;;;;;5057280;28;20024;-89
2021/06/10 01:17:18;;;;;;;8.80;6.90;;;;;;;;;;5045222;28;20469;-90
2021/06/10 01:20:05;;;;;;;9.45;7.68;;;;;;;;;;5061812;28;20032;-90
2021/06/10 01:22:57;;;;;;;11.68;7.85;;;;;;;;;;5059079;28;20589;-91
2021/06/10 01:25:42;;;;;;;12.25;8.45;;;;;;;;;;5055258;28;20109;-91
2021/06/10 01:28:35;;;;;;;10.35;7.82;;;;;;;;;;5058062;28;20557;-91
2021/06/10 01:31:20;;;;;;;10.23;7.47;;;;;;;;;;5056957;28;20100;-91
2021/06/10 01:34:06;;;;;;;9.80;7.90;;;;;;;;;;5060101;28;20020;-90
2021/06/10 01:36:54;;;;;;;10.88;7.95;;;;;;;;;;5052819;28;20477;-91
2021/06/10 01:39:41;;;;;;;11.75;8.55;;;;;;;;;;5052908;28;20028;-90
2021/06/10 01:42:27;;;;;;;12.05;8.68;;;;;;;;;;5058347;28;20031;-90
2021/06/10 01:45:13;;;;;;;10.80;7.93;;;;;;;;;;5055757;28;20463;-92
2021/06/10 01:47:58;;;;;;;13.25;8.57;;;;;;;;;;5057710;28;20024;-91
2021/06/10 01:50:45;;;;;;;9.73;7.43;;;;;;;;;;5054282;28;20013;-91
2021/06/10 01:53:31;;;;;;;10.68;8.48;;;;;;;;;;5063999;28;20039;-91
2021/06/10 01:56:16;;;;;;;9.35;7.32;;;;;;;;;;5054368;28;20501;-90
2021/06/10 01:59:02;;;;;;;9.18;7.50;;;;;;;;;;5063800;28;20025;-90
2021/06/10 02:01:48;;;;;;;10.50;8.07;;;;;;;;;;5051391;28;20036;-88
2021/06/10 02:04:33;;;;;;;9.90;8.27;;;;;;;;;;5064997;28;20054;-90
2021/06/10 02:07:19;;;;;;;13.57;9.15;;;;;;;;;;5057608;28;20119;-89
2021/06/10 02:10:05;;;;;;;12.25;8.30;;;;;;;;;;5062321;28;20024;-89
2021/06/10 02:12:50;;;;;;;11.73;8.10;;;;;;;;;;5056092;28;20059;-89
2021/06/10 02:15:36;;;;;;;9.38;8.02;;;;;;;;;;5060150;28;20020;-89
2021/06/10 02:18:21;;;;;;;10.57;7.32;;;;;;;;;;5062786;28;20027;-91
2021/06/10 02:21:09;;;;;;;12.55;7.45;;;;;;;;;;5045892;28;20048;-90
2021/06/10 02:23:54;;;;;;;9.82;7.55;;;;;;;;;;5006292;28;20073;-88
2021/06/10 02:26:39;;;;;;;10.20;7.70;;;;;;;;;;5027766;28;20027;-85
2021/06/10 02:29:25;;;;;;;8.68;7.20;;;;;;;;;;5030170;28;20163;-87
2021/06/10 02:32:10;;;;;;;11.88;8.20;;;;;;;;;;5020204;28;20048;-87
2021/06/10 02:34:55;;;;;;;10.10;7.35;;;;;;;;;;5029807;28;20044;-87
2021/06/10 02:37:42;;;;;;;10.35;7.55;;;;;;;;;;5020097;28;20029;-87
2021/06/10 02:40:31;;;;;;;9.88;8.20;;;;;;;;;;5033362;28;20138;-85
2021/06/10 02:43:17;;;;;;;12.05;7.78;;;;;;;;;;5027506;28;20041;-89
2021/06/10 02:46:02;;;;;;;10.13;7.82;;;;;;;;;;5031954;28;20109;-86
2021/06/10 02:48:48;;;;;;;11.35;7.75;;;;;;;;;;5017741;28;20022;-86
2021/06/10 02:51:34;;;;;;;10.60;7.45;;;;;;;;;;5024499;28;20040;-87
2021/06/10 02:54:20;;;;;;;8.75;7.22;;;;;;;;;;5021508;28;20027;-86
2021/06/10 02:57:06;;;;;;;10.43;7.75;;;;;;;;;;5027252;28;20028;-86
2021/06/10 02:59:53;;;;;;;9.10;7.53;;;;;;;;;;5028493;28;20434;-87
2021/06/10 03:02:38;;;;;;;9.68;7.88;;;;;;;;;;5036944;28;20516;-89
2021/06/10 03:05:25;;;;;;;10.30;7.75;;;;;;;;;;5028185;28;20025;-88
2021/06/10 03:08:11;;;;;;;9.65;8.15;;;;;;;;;;5033189;28;20032;-90
2021/06/10 03:10:58;;;;;;;10.43;8.20;;;;;;;;;;5017662;28;20056;-88
2021/06/10 03:13:44;;;;;;;11.18;7.63;;;;;;;;;;5027672;28;20029;-88
2021/06/10 03:16:30;;;;;;;10.30;7.97;;;;;;;;;;5047480;28;20518;-90
2021/06/10 03:19:16;;;;;;;12.30;7.93;;;;;;;;;;5034430;28;20029;-88
2021/06/10 03:22:01;;;;;;;11.13;8.10;;;;;;;;;;5014485;28;20030;-86
2021/06/10 03:24:47;;;;;;;13.02;8.10;;;;;;;;;;5029019;28;20035;-87
2021/06/10 03:27:32;;;;;;;12.38;8.52;;;;;;;;;;5033910;28;20128;-88
2021/06/10 03:30:18;;;;;;;9.93;7.85;;;;;;;;;;5012123;28;20029;-88
2021/06/10 03:33:05;;;;;;;10.50;8.45;;;;;;;;;;5037795;28;20009;-87
2021/06/10 03:35:50;;;;;;;9.90;7.63;;;;;;;;;;5038937;28;20025;-89
2021/06/10 03:38:37;;;;;;;11.85;9.00;;;;;;;;;;5025418;28;20029;-88
2021/06/10 03:41:23;;;;;;;10.30;8.07;;;;;;;;;;5024868;28;20029;-87
2021/06/10 03:44:09;;;;;;;11.90;8.55;;;;;;;;;;5027157;28;20032;-88
2021/06/10 03:46:56;;;;;;;13.88;8.43;;;;;;;;;;5025893;28;20025;-88
2021/06/10 03:49:42;;;;;;;12.77;8.43;;;;;;;;;;5019878;28;20017;-88
2021/06/10 03:52:28;;;;;;;12.27;7.68;;;;;;;;;;5039539;28;20092;-89
2021/06/10 03:55:13;;;;;;;11.05;8.52;;;;;;;;;;5026679;28;20033;-91
2021/06/10 03:57:58;;;;;;;11.02;8.18;;;;;;;;;;5032843;28;20025;-89
2021/06/10 04:00:43;;;;;;;10.73;8.23;;;;;;;;;;5030809;28;20108;-92
2021/06/10 04:03:29;;;;;;;10.20;8.27;;;;;;;;;;5039082;28;20029;-92
2021/06/10 04:06:16;;;;;;;11.18;8.60;;;;;;;;;;5036779;28;20379;-91
2021/06/10 04:09:03;;;;;;;11.77;8.20;;;;;;;;;;5017682;28;20025;-91
2021/06/10 04:11:51;;;;;;;10.45;8.05;;;;;;;;;;5040442;28;20021;-93
2021/06/10 04:14:36;;;;;;;11.82;8.35;;;;;;;;;;5022879;28;20055;-91
2021/06/10 04:17:22;;;;;;;9.48;8.02;;;;;;;;;;5016959;28;20025;-91
2021/06/10 04:20:07;;;;;;;10.18;8.32;;;;;;;;;;5041104;28;20728;-90
2021/06/10 04:22:52;;;;;;;14.10;8.95;;;;;;;;;;5029357;28;20021;-90
2021/06/10 04:25:38;;;;;;;9.18;7.90;;;;;;;;;;5032049;28;20025;-90
2021/06/10 04:28:23;;;;;;;11.63;9.20;;;;;;;;;;5041444;28;20025;-91
2021/06/10 04:31:08;;;;;;;10.90;8.48;;;;;;;;;;5036852;28;20104;-91
2021/06/10 04:33:54;;;;;;;10.93;9.00;;;;;;;;;;5033910;28;20036;-92
2021/06/10 04:36:39;;;;;;;12.40;7.65;;;;;;;;;;5036430;28;20124;-89
2021/06/10 04:39:24;;;;;;;11.02;8.05;;;;;;;;;;5047689;28;20029;-89
2021/06/10 04:42:10;;;;;;;9.55;8.32;;;;;;;;;;5032899;28;20029;-90
2021/06/10 04:44:55;;;;;;;12.30;7.63;;;;;;;;;;5035227;28;20383;-91
2021/06/10 04:47:40;;;;;;;12.02;8.15;;;;;;;;;;5035486;28;20662;-90
2021/06/10 04:50:27;;;;;;;10.80;7.72;;;;;;;;;;5037204;28;20493;-89
2021/06/10 04:53:13;;;;;;;11.07;7.78;;;;;;;;;;5029180;28;20082;-91
2021/06/10 04:55:58;;;;;;;11.23;8.05;;;;;;;;;;5029663;28;20013;-88
2021/06/10 04:58:44;;;;;;;11.55;7.78;;;;;;;;;;5013980;28;20029;-87
2021/06/10 05:01:29;;;;;;;11.07;7.90;;;;;;;;;;5030255;28;20033;-88
2021/06/10 05:04:15;;;;;;;8.98;7.35;;;;;;;;;;5040020;28;20475;-89
2021/06/10 05:07:00;;;;;;;9.48;7.90;;;;;;;;;;5036235;28;20369;-92
2021/06/10 05:09:45;;;;;;;10.60;7.80;;;;;;;;;;5028115;28;20029;-92
2021/06/10 05:12:31;;;;;;;9.55;7.35;;;;;;;;;;5036352;28;20558;-90
2021/06/10 05:15:16;;;;;;;9.98;8.20;;;;;;;;;;5039817;28;20043;-89
2021/06/10 05:18:01;;;;;;;11.35;7.85;;;;;;;;;;5042022;28;20119;-91
2021/06/10 05:20:47;;;;;;;9.23;7.97;;;;;;;;;;5048085;28;20056;-91
2021/06/10 05:23:32;;;;;;;10.10;7.88;;;;;;;;;;5054204;28;20108;-90
2021/06/10 05:26:17;;;;;;;10.68;7.30;;;;;;;;;;5036889;28;20489;-90
2021/06/10 05:29:03;;;;;;;13.65;7.95;;;;;;;;;;5054271;28;20021;-91
2021/06/10 05:35:04;;;;;;;12.38;8.77;;;;;;;;;;5041035;28;20114;-92
2021/06/10 05:41:35;;;;;;;10.65;8.10;;;;;;;;;;5058805;28;20044;-91
2021/06/10 05:44:32;;;;;;;12.32;9.48;;;;;;;;;;4941170;28;20037;-90
2021/06/10 05:47:18;;;;;;;11.15;8.73;;;;;;;;;;5037837;28;20106;-89
2021/06/10 05:50:06;;;;;;;10.90;7.63;;;;;;;;;;5056277;28;20027;-89
2021/06/10 05:52:51;;;;;;;11.10;7.70;;;;;;;;;;5050394;28;20490;-88
2021/06/10 05:55:47;;;;;;;;;;;;;;;;;;;;;
2021/06/10 05:58:42;;;;;;;14.50;7.63;;;;;;;;;;5053329;28;20695;-90
2021/06/10 06:01:27;;;;;;;12.40;7.53;;;;;;;;;;5048813;28;20030;-90
2021/06/10 06:04:13;;;;;;;14.63;7.72;;;;;;;;;;5050676;28;20024;-88
2021/06/10 06:06:58;;;;;;;10.50;6.95;;;;;;;;;;5050958;28;20673;-88
2021/06/10 06:09:43;;;;;;;9.38;7.28;;;;;;;;;;5032869;28;20032;-85
2021/06/10 06:12:28;;;;;;;9.93;7.00;;;;;;;;;;5054002;28;20448;-83
2021/06/10 06:15:14;;;;;;;11.88;8.18;;;;;;;;;;5041859;28;20032;-79
2021/06/10 06:17:59;;;;;;;10.82;6.93;;;;;;;;;;5037839;28;20391;-77
2021/06/10 06:20:44;;;;;;;11.82;7.35;;;;;;;;;;5044104;28;20075;-79
2021/06/10 06:23:31;;;;;;;10.80;7.50;;;;;;;;;;5041043;28;20095;-78
2021/06/10 06:26:16;;;;;;;8.43;6.60;;;;;;;;;;5045991;28;20039;-79
2021/06/10 06:29:03;;;;;;;8.93;7.13;;;;;;;;;;5016937;28;20036;-78
2021/06/10 06:31:48;;;;;;;10.02;6.10;;;;;;;;;;5042505;28;20479;-78
2021/06/10 06:34:33;;;;;;;8.52;6.45;;;;;;;;;;5050524;28;20055;-77
2021/06/10 06:37:18;;;;;;;8.15;5.88;;;;;;;;;;5048786;28;20025;-78
2021/06/10 06:40:04;;;;;;;7.90;5.72;;;;;;;;;;5043449;28;20025;-78
2021/06/10 06:42:50;;;;;;;9.45;5.68;;;;;;;;;;5030315;28;20116;-80
2021/06/10 06:45:35;;;;;;;8.13;5.47;;;;;;;;;;5045911;28;20021;-79
2021/06/10 06:48:21;;;;;;;7.13;5.80;;;;;;;;;;5053128;28;20025;-80
2021/06/10 06:51:07;;;;;;;9.23;5.65;;;;;;;;;;5047340;28;20021;-81
2021/06/10 06:53:52;;;;;;;8.35;5.88;;;;;;;;;;5044541;28;20116;-82
2021/06/10 06:56:37;;;;;;;6.95;5.10;;;;;;;;;;5060626;28;20515;-80
2021/06/10 06:59:22;;;;;;;9.75;5.75;;;;;;;;;;5045589;28;20026;-80
2021/06/10 07:02:08;;;;;;;6.00;5.13;;;;;;;;;;5044721;28;20025;-80
2021/06/10 07:04:54;;;;;;;12.13;7.85;;;;;;;;;;5026832;28;20099;-80
2021/06/10 07:07:39;;;;;;;14.35;12.85;;;;;;;;;;5038953;28;20021;-81
2021/06/10 07:10:24;;;;;;;10.35;7.53;;;;;;;;;;5048963;28;20013;-80
2021/06/10 07:13:10;;;;;;;7.05;5.38;;;;;;;;;;5044816;28;20064;-80
2021/06/10 07:15:55;;;;;;;8.65;5.88;;;;;;;;;;5052480;28;20029;-82
2021/06/10 07:18:40;;;;;;;6.57;5.45;;;;;;;;;;5028347;28;20033;-81
2021/06/10 07:21:26;;;;;;;8.38;5.68;;;;;;;;;;5055275;28;20141;-82
2021/06/10 07:24:11;;;;;;;8.38;5.80;;;;;;;;;;5046913;28;20013;-82
2021/06/10 07:26:57;;;;;;;8.77;6.25;;;;;;;;;;5046656;28;20025;-83
2021/06/10 07:29:42;;;;;;;9.90;6.55;;;;;;;;;;5051744;28;20025;-81
2021/06/10 07:32:28;;;;;;;8.75;6.60;;;;;;;;;;5045672;28;20024;-83
2021/06/10 07:35:14;;;;;;;13.70;7.75;;;;;;;;;;5046413;28;20064;-85
2021/06/10 07:38:00;;;;;;;9.88;6.45;;;;;;;;;;5055898;28;20025;-86
2021/06/10 07:40:46;;;;;;;14.25;7.10;;;;;;;;;;5053571;28;20087;-80
2021/06/10 07:43:31;;;;;;;12.18;6.30;;;;;;;;;;5051261;28;20100;-80
2021/06/10 07:46:16;;;;;;;10.40;7.45;;;;;;;;;;5046968;28;20670;-80
2021/06/10 07:49:02;;;;;;;8.05;6.75;;;;;;;;;;5054960;28;20428;-79
2021/06/10 07:51:47;;;;;;;10.57;7.50;;;;;;;;;;5031057;28;20025;-79
2021/06/10 07:54:32;;;;;;;9.70;6.40;;;;;;;;;;5040384;28;20163;-79
2021/06/10 07:57:18;;;;;;;10.88;9.25;;;;;;;;;;5050314;28;20595;-79
2021/06/10 08:00:04;;;;;;;10.32;7.88;;;;;;;;;;5054050;28;20532;-79
2021/06/10 08:02:50;;;;;;;9.25;7.72;;;;;;;;;;5053564;28;20032;-79
2021/06/10 08:05:35;;;;;;;9.63;7.47;;;;;;;;;;5047610;28;20393;-80
2021/06/10 08:08:20;;;;;;;9.77;7.63;;;;;;;;;;5064165;28;20024;-84
2021/06/10 08:11:07;;;;;;;10.30;7.38;;;;;;;;;;5057452;28;20032;-78
2021/06/10 08:13:52;;;;;;;12.57;7.97;;;;;;;;;;5049892;28;20017;-78
2021/06/10 08:16:38;;;;;;;9.38;7.05;;;;;;;;;;5037349;28;20036;-77
2021/06/10 08:19:23;;;;;;;12.75;9.88;;;;;;;;;;5059299;28;20048;-78
2021/06/10 08:22:08;;;;;;;15.52;8.95;;;;;;;;;;5056997;28;20033;-79
2021/06/10 08:24:53;;;;;;;11.50;8.40;;;;;;;;;;5062921;28;20470;-82
2021/06/10 08:27:39;;;;;;;19.10;8.85;;;;;;;;;;5060977;28;20035;-83
2021/06/10 08:30:24;;;;;;;14.35;7.72;;;;;;;;;;5060029;28;20031;-79
2021/06/10 08:33:09;;;;;;;8.43;6.00;;;;;;;;;;5055523;28;20028;-80
2021/06/10 08:35:56;;;;;;;9.13;7.10;;;;;;;;;;5060635;28;20063;-79
2021/06/10 08:38:42;;;;;;;14.40;8.35;;;;;;;;;;5052929;28;20032;-82
2021/06/10 08:41:28;;;;;;;10.35;8.55;;;;;;;;;;5061937;28;20016;-80
2021/06/10 08:44:13;;;;;;;17.33;8.38;;;;;;;;;;5062458;28;20059;-79
2021/06/10 08:47:00;;;;;;;8.77;7.68;;;;;;;;;;5052776;28;20073;-79
2021/06/10 08:49:48;;;;;;;9.88;7.85;;;;;;;;;;5054859;28;20062;-80
2021/06/10 08:52:33;;;;;;;9.50;7.18;;;;;;;;;;5058649;28;20070;-79
2021/06/10 08:55:19;;;;;;;10.05;7.10;;;;;;;;;;5061104;28;20042;-78
2021/06/10 08:58:04;;;;;;;9.40;6.82;;;;;;;;;;5056257;28;20601;-79
2021/06/10 09:00:49;;;;;;;12.40;8.43;;;;;;;;;;5056607;28;20103;-81
2021/06/10 09:03:35;;;;;;;11.93;8.13;;;;;;;;;;5058550;28;20048;-81
2021/06/10 09:06:20;;;;;;;13.77;8.38;;;;;;;;;;5063725;28;20023;-82
2021/06/10 09:09:05;;;;;;;14.02;10.00;;;;;;;;;;5070948;28;20027;-81
2021/06/10 09:11:55;;;;;;;9.43;8.20;;;;;;;;;;5066710;28;20035;-79
2021/06/10 09:14:52;;;;;;;10.00;7.78;;;;;;;;;;5050382;28;20024;-81
2021/06/10 09:17:39;;;;;;;11.13;8.35;;;;;;;;;;5073992;28;20024;-81
2021/06/10 09:20:25;;;;;;;12.30;9.00;;;;;;;;;;5060202;28;20044;-80
2021/06/10 09:23:18;;;;;;;10.55;8.50;;;;;;;;;;5053092;28;20020;-81
2021/06/10 09:26:04;;;;;;;9.70;8.43;;;;;;;;;;5064508;28;20485;-80
2021/06/10 09:29:00;;;;;;;10.15;8.10;;;;;;;;;;5055783;28;20032;-87
2021/06/10 09:31:46;;;;;;;9.98;8.65;;;;;;;;;;5055678;28;20020;-86
2021/06/10 09:34:42;;;;;;;10.52;9.18;;;;;;;;;;5052769;28;20024;-86
2021/06/10 09:37:33;;;;;;;10.25;9.15;;;;;;;;;;5055894;28;20059;-81
2021/06/10 09:40:19;;;;;;;12.43;9.82;;;;;;;;;;5052374;28;20047;-82
2021/06/10 09:43:04;;;;;;;10.02;8.07;;;;;;;;;;5066441;28;20064;-82
2021/06/10 09:45:54;;;;;;;11.73;8.95;;;;;;;;;;5058727;28;20032;-82
2021/06/10 09:48:39;;;;;;;11.05;9.40;;;;;;;;;;5055614;28;20059;-83
2021/06/10 09:51:25;;;;;;;11.98;8.95;;;;;;;;;;5063295;28;20020;-83
2021/06/10 09:54:11;;;;;;;10.55;8.57;;;;;;;;;;5056223;28;20157;-83
2021/06/10 09:57:00;;;;;;;11.40;9.30;;;;;;;;;;5059216;28;20115;-83
2021/06/10 09:59:45;;;;;;;9.68;8.68;;;;;;;;;;5057686;28;20066;-83
2021/06/10 10:02:30;;;;;;;11.75;10.00;;;;;;;;;;5059686;28;20173;-83
2021/06/10 10:05:16;;;;;;;13.05;10.07;;;;;;;;;;5054851;28;20032;-84
2021/06/10 10:08:01;;;;;;;11.57;7.32;;;;;;;;;;5057095;28;20036;-77
2021/06/10 10:10:47;;;;;;;12.10;10.00;;;;;;;;;;5050714;28;20016;-78
2021/06/10 10:13:32;;;;;;;14.13;11.27;;;;;;;;;;5058005;28;20027;-77
2021/06/10 10:16:19;;;;;;;16.50;12.40;;;;;;;;;;5048595;28;20091;-75
2021/06/10 10:19:05;;;;;;;12.13;8.70;;;;;;;;;;5061155;28;20641;-77
2021/06/10 10:21:54;;;;;;;12.15;10.00;;;;;;;;;;5052582;28;20501;-78
2021/06/10 10:24:40;;;;;;;11.30;10.18;;;;;;;;;;5052912;28;20016;-80
2021/06/10 10:27:25;;;;;;;13.73;10.52;;;;;;;;;;5052133;28;20115;-77
2021/06/10 10:30:10;;;;;;;14.68;10.13;;;;;;;;;;5055263;28;20082;-81
2021/06/10 10:32:56;;;;;;;11.32;10.10;;;;;;;;;;5057821;28;20109;-83
2021/06/10 10:35:57;;;;;;;14.23;10.45;;;;;;;;;;5053375;28;20024;-85
2021/06/10 10:38:42;;;;;;;11.85;9.52;;;;;;;;;;5050355;28;20054;-80
2021/06/10 10:41:28;;;;;;;12.88;10.07;;;;;;;;;;5048951;28;20033;-76
2021/06/10 10:44:25;;;;;;;11.63;9.70;;;;;;;;;;5063124;28;20498;-76
2021/06/10 10:47:10;;;;;;;17.17;10.27;;;;;;;;;;5052531;28;20025;-76
2021/06/10 10:49:59;;;;;;;11.30;9.52;;;;;;;;;;5058857;28;20569;-77
2021/06/10 10:52:52;;;;;;;12.75;9.57;;;;;;;;;;5056603;28;20054;-77
2021/06/10 10:55:37;;;;;;;10.80;9.43;;;;;;;;;;5052683;28;20020;-79
2021/06/10 10:58:22;;;;;;;12.15;9.85;;;;;;;;;;5053921;28;20112;-81
2021/06/10 11:01:08;;;;;;;10.73;9.63;;;;;;;;;;5033845;28;20028;-89
2021/06/10 11:03:53;;;;;;;12.32;11.02;;;;;;;;;;5061113;28;20020;-85
2021/06/10 11:06:38;;;;;;;11.32;9.82;;;;;;;;;;5058964;28;20074;-85
2021/06/10 11:09:41;;;;;;;12.98;11.65;;;;;;;;;;5061536;28;20601;-85
2021/06/10 11:12:42;;;;;;;12.40;11.02;;;;;;;;;;5067042;28;20103;-87
2021/06/10 11:15:29;;;;;;;13.27;11.43;;;;;;;;;;5058785;28;20119;-84
2021/06/10 11:18:34;;;;;;;12.35;10.98;;;;;;;;;;5063536;28;20024;-81
2021/06/10 11:21:47;;;;;;;13.75;12.30;;;;;;;;;;5064388;28;20048;-82
2021/06/10 11:24:45;;;;;;;16.67;11.27;;;;;;;;;;5057780;28;20476;-80
2021/06/10 11:27:37;;;;;;;13.40;11.07;;;;;;;;;;5055363;28;20032;-82
2021/06/10 11:30:27;;;;;;;16.67;13.13;;;;;;;;;;5061132;28;20024;-81
2021/06/10 11:33:15;;;;;;;12.88;11.13;;;;;;;;;;5056843;28;20016;-81
2021/06/10 11:36:04;;;;;;;12.97;11.63;;;;;;;;;;5071732;28;20023;-81
2021/06/10 11:38:52;;;;;;;13.38;11.02;;;;;;;;;;5063568;28;20040;-78
2021/06/10 11:41:37;;;;;;;15.95;10.98;;;;;;;;;;5061524;28;20360;-80
2021/06/10 11:44:22;;;;;;;12.93;10.65;;;;;;;;;;5064716;28;20032;-80
2021/06/10 11:47:18;;;;;;;12.40;11.20;;;;;;;;;;5073115;28;20172;-80
2021/06/10 11:50:21;;;;;;;12.55;11.30;;;;;;;;;;5063581;28;20541;-84
2021/06/10 11:53:07;;;;;;;13.55;11.82;;;;;;;;;;5069249;28;20241;-83
2021/06/10 11:55:54;;;;;;;12.07;10.77;;;;;;;;;;5063733;28;20028;-83
2021/06/10 11:58:39;;;;;;;14.32;11.10;;;;;;;;;;5077618;28;20034;-82
2021/06/10 12:01:25;;;;;;;12.65;11.20;;;;;;;;;;5052776;28;20552;-83
2021/06/10 12:04:10;;;;;;;13.82;11.30;;;;;;;;;;5061063;28;20112;-82
2021/06/10 12:07:05;;;;;;;13.93;11.38;;;;;;;;;;5064006;28;20065;-82
2021/06/10 12:09:51;;;;;;;12.55;11.25;;;;;;;;;;5065532;28;20021;-83
2021/06/10 12:12:39;;;;;;;14.57;11.32;;;;;;;;;;5065476;28;20085;-84
2021/06/10 12:15:25;;;;;;;12.25;10.90;;;;;;;;;;5061461;28;20103;-81
2021/06/10 12:18:12;;;;;;;11.82;10.60;;;;;;;;;;5053256;28;20537;-82
2021/06/10 12:21:00;;;;;;;11.15;10.05;;;;;;;;;;5068552;28;20091;-85
2021/06/10 12:23:47;;;;;;;11.80;10.63;;;;;;;;;;5057671;28;20016;-82
2021/06/10 12:26:34;;;;;;;11.32;9.82;;;;;;;;;;5055806;28;20040;-82
2021/06/10 12:29:19;;;;;;;13.82;10.52;;;;;;;;;;5054373;28;20032;-81
2021/06/10 12:32:05;;;;;;;11.25;9.80;;;;;;;;;;5051651;28;20121;-80
2021/06/10 12:34:54;;;;;;;10.55;9.45;;;;;;;;;;5059373;28;20027;-82
2021/06/10 12:37:39;;;;;;;;;;;;;;;;;;5053653;28;20060;-82
2021/06/10 12:40:33;;;;;;;10.82;9.75;;;;;;;;;;5061352;28;19908;-82
2021/06/10 12:43:20;;;;;;;10.88;9.02;;;;;;;;;;5056283;28;20025;-81
2021/06/10 12:46:06;;;;;;;11.10;9.85;;;;;;;;;;5061546;28;20028;-79
2021/06/10 12:48:55;;;;;;;13.10;8.15;;;;;;;;;;5058118;28;20107;-81
2021/06/10 12:51:47;;;;;;;13.05;9.95;;;;;;;;;;5065745;28;20024;-77
2021/06/10 12:54:33;;;;;;;12.80;9.35;;;;;;;;;;5058167;28;20043;-81
2021/06/10 12:57:19;;;;;;;11.07;8.43;;;;;;;;;;5054427;28;20036;-77
2021/06/10 13:00:05;;;;;;;12.45;8.98;;;;;;;;;;5056157;28;20118;-77
2021/06/10 13:03:01;;;;;;;9.32;8.32;;;;;;;;;;5056004;28;20398;-82
2021/06/10 13:06:04;;;;;;;11.63;7.85;;;;;;;;;;5056215;28;20039;-82
2021/06/10 13:08:49;;;;;;;11.27;8.68;;;;;;;;;;5059686;28;20024;-81
2021/06/10 13:11:34;;;;;;;14.27;8.93;;;;;;;;;;5061237;28;20020;-81
2021/06/10 13:14:19;;;;;;;9.25;7.43;;;;;;;;;;5052401;28;20058;-82
2021/06/10 13:17:05;;;;;;;9.90;8.32;;;;;;;;;;5070746;28;20494;-83
2021/06/10 13:19:50;;;;;;;9.55;7.80;;;;;;;;;;5048016;28;20538;-83
2021/06/10 13:22:35;;;;;;;10.07;8.25;;;;;;;;;;5061048;28;20056;-81
2021/06/10 13:25:21;;;;;;;10.57;8.07;;;;;;;;;;5065325;28;20040;-82
2021/06/10 13:28:07;;;;;;;9.75;8.32;;;;;;;;;;5055394;28;20047;-81
2021/06/10 13:31:08;;;;;;;11.07;8.27;;;;;;;;;;5061828;28;20032;-80
2021/06/10 13:33:57;;;;;;;8.77;7.75;;;;;;;;;;5052088;28;20024;-83
2021/06/10 13:36:45;;;;;;;9.27;8.05;;;;;;;;;;5059325;28;20028;-84
2021/06/10 13:39:31;;;;;;;9.30;7.47;;;;;;;;;;5058885;28;20035;-83
2021/06/10 13:42:20;;;;;;;14.07;8.70;;;;;;;;;;5058446;28;20279;-82
2021/06/10 13:45:06;;;;;;;9.68;8.32;;;;;;;;;;5056314;28;20032;-83
2021/06/10 13:47:51;;;;;;;11.77;8.75;;;;;;;;;;5063254;28;20027;-82
2021/06/10 13:50:36;;;;;;;11.10;7.85;;;;;;;;;;5051607;28;20043;-82
2021/06/10 13:53:22;;;;;;;10.77;7.57;;;;;;;;;;5063829;28;20107;-80
2021/06/10 13:56:07;;;;;;;10.15;7.90;;;;;;;;;;5056415;28;20123;-79
2021/06/10 13:58:52;;;;;;;10.55;8.20;;;;;;;;;;5065484;28;20107;-77
2021/06/10 14:01:37;;;;;;;10.13;8.77;;;;;;;;;;5048439;28;20051;-81
2021/06/10 14:04:23;;;;;;;10.27;9.18;;;;;;;;;;5038745;28;20088;-77
2021/06/10 14:07:09;;;;;;;9.93;8.88;;;;;;;;;;5057477;28;20025;-78
2021/06/10 14:09:54;;;;;;;8.82;7.85;;;;;;;;;;5052419;28;20016;-78
2021/06/10 14:12:39;;;;;;;9.90;8.20;;;;;;;;;;5057191;28;20592;-78
2021/06/10 14:15:25;;;;;;;9.75;7.22;;;;;;;;;;5050802;28;20497;-79
2021/06/10 14:18:10;;;;;;;10.20;7.28;;;;;;;;;;5054521;28;20238;-77
2021/06/10 14:20:56;;;;;;;9.40;8.25;;;;;;;;;;5046390;28;20127;-78
2021/06/10 14:23:41;;;;;;;12.70;9.00;;;;;;;;;;5045268;28;20047;-81
2021/06/10 14:26:26;;;;;;;8.48;7.63;;;;;;;;;;5051138;28;20029;-80
2021/06/10 14:30:09;;;;;;;8.75;7.85;;;;;;;;;;5049604;28;20036;-80
2021/06/10 14:32:21;;;;;;;9.00;5.63;;;;;;;;;;5042154;28;20492;-77
2021/06/10 14:35:07;;;;;;;6.78;5.78;;;;;;;;;;5054196;28;20025;-78
2021/06/10 14:37:54;;;;;;;6.10;5.50;;;;;;;;;;5051558;28;20025;-80
2021/06/10 14:40:40;;;;;;;8.95;6.70;;;;;;;;;;5037598;28;20036;-81
2021/06/10 14:43:25;;;;;;;10.15;6.78;;;;;;;;;;5053339;28;20032;-79
2021/06/10 14:46:11;;;;;;;10.27;8.57;;;;;;;;;;5051475;28;20033;-81
2021/06/10 14:48:56;;;;;;;10.60;5.88;;;;;;;;;;5049257;28;20048;-78
2021/06/10 14:51:41;;;;;;;7.55;5.93;;;;;;;;;;5045164;28;20146;-79
2021/06/10 14:54:27;;;;;;;7.80;6.95;;;;;;;;;;5052066;28;20033;-80
2021/06/10 14:57:13;;;;;;;13.18;7.95;;;;;;;;;;5049303;28;20021;-79
2021/06/10 14:59:58;;;;;;;12.00;8.38;;;;;;;;;;5052591;28;20390;-80
2021/06/10 15:02:43;;;;;;;13.63;9.18;;;;;;;;;;5036134;28;20021;-79
2021/06/10 15:05:29;;;;;;;13.23;10.63;;;;;;;;;;5049964;28;20029;-80
2021/06/10 15:08:16;;;;;;;12.50;10.52;;;;;;;;;;5045949;28;20391;-84
2021/06/10 15:11:01;;;;;;;16.58;9.48;;;;;;;;;;5057867;28;20021;-85
2021/06/10 15:13:49;;;;;;;12.60;9.73;;;;;;;;;;5048875;28;20105;-79
2021/06/10 15:16:34;;;;;;;13.52;10.00;;;;;;;;;;5045266;28;20387;-77
2021/06/10 15:19:20;;;;;;;10.13;8.98;;;;;;;;;;5052802;28;20117;-78
2021/06/10 15:22:05;;;;;;;10.35;8.65;;;;;;;;;;5054839;28;20029;-82
2021/06/10 15:24:50;;;;;;;11.95;9.40;;;;;;;;;;5053769;28;20025;-82
2021/06/10 15:27:35;;;;;;;10.43;9.32;;;;;;;;;;5051033;28;20020;-81
2021/06/10 15:30:20;;;;;;;11.30;9.32;;;;;;;;;;5052515;28;20025;-81
2021/06/10 15:33:06;;;;;;;12.90;10.00;;;;;;;;;;5050523;28;20123;-84
2021/06/10 15:35:52;;;;;;;13.73;10.48;;;;;;;;;;5056133;28;20029;-83
2021/06/10 15:38:37;;;;;;;13.15;9.98;;;;;;;;;;5052194;28;20034;-83
2021/06/10 15:41:23;;;;;;;14.50;9.32;;;;;;;;;;5065204;28;20051;-82
2021/06/10 15:44:08;;;;;;;9.70;7.65;;;;;;;;;;5052180;28;20035;-84
2021/06/10 15:46:53;;;;;;;10.38;7.40;;;;;;;;;;5054887;28;20074;-83
2021/06/10 15:49:38;;;;;;;7.22;6.07;;;;;;;;;;5047207;28;20035;-83
2021/06/10 15:52:23;;;;;;;7.97;6.00;;;;;;;;;;5064328;28;20103;-83
2021/06/10 15:55:09;;;;;;;7.65;5.68;;;;;;;;;;5055809;28;20426;-83
2021/06/10 15:57:54;;;;;;;8.38;5.32;;;;;;;;;;5066741;28;20032;-84
2021/06/10 16:00:40;;;;;;;5.80;4.90;;;;;;;;;;5062079;28;20454;-83
2021/06/10 16:03:25;;;;;;;7.60;5.60;;;;;;;;;;5058110;28;20667;-82
2021/06/10 16:06:11;;;;;;;7.93;5.88;;;;;;;;;;5047120;28;20051;-84
2021/06/10 16:08:56;;;;;;;6.65;5.47;;;;;;;;;;5063235;28;20055;-83
2021/06/10 16:11:41;;;;;;;5.40;4.22;;;;;;;;;;5059839;28;20386;-84
2021/06/10 16:14:26;;;;;;;5.22;4.00;;;;;;;;;;5053187;28;20135;-84
2021/06/10 16:17:12;;;;;;;6.30;4.55;;;;;;;;;;5046024;28;20028;-85
2021/06/10 16:19:58;;;;;;;5.78;4.22;;;;;;;;;;5053897;28;20074;-85
2021/06/10 16:22:44;;;;;;;5.30;4.47;;;;;;;;;;5063719;28;20039;-85
2021/06/10 16:25:29;;;;;;;8.30;4.80;;;;;;;;;;5055378;28;20107;-84
2021/06/10 16:28:14;;;;;;;6.03;4.85;;;;;;;;;;5051775;28;20017;-85
2021/06/10 16:31:00;;;;;;;7.22;4.75;;;;;;;;;;5052880;28;20154;-85
2021/06/10 16:33:45;;;;;;;5.00;4.47;;;;;;;;;;5070154;28;20089;-86
2021/06/10 16:36:30;;;;;;;6.70;4.97;;;;;;;;;;5044086;28;20127;-85